createdAt,value
2022-12-06T00:02:12.729Z,83.68
2022-12-06T00:04:39.490Z,84.10
2022-12-06T00:07:06.177Z,83.47
2022-12-06T00:09:33.682Z,83.83
2022-12-06T00:12:00.425Z,83.38
2022-12-06T00:14:27.356Z,84.31
2022-12-06T00:16:54.293Z,84.33
2022-12-06T00:19:23.912Z,84.20
2022-12-06T00:21:50.815Z,84.33
2022-12-06T00:24:19.812Z,84.22
2022-12-06T00:26:48.330Z,84.08
2022-12-06T00:29:18.987Z,83.70
2022-12-06T00:31:45.990Z,83.88
2022-12-06T00:34:13.248Z,83.82
2022-12-06T00:36:41.768Z,83.82
2022-12-06T00:39:11.611Z,84.37
2022-12-06T00:41:38.871Z,83.55
2022-12-06T00:44:05.721Z,83.88
2022-12-06T00:46:33.789Z,84.03
2022-12-06T00:49:02.290Z,84.13
2022-12-06T00:51:31.578Z,83.59
2022-12-06T00:53:59.003Z,83.57
2022-12-06T00:56:26.726Z,83.66
2022-12-06T00:58:53.865Z,84.20
2022-12-06T01:01:23.585Z,84.02
2022-12-06T01:03:52.601Z,84.04
2022-12-06T01:06:23.114Z,83.95
2022-12-06T01:08:50.304Z,84.09
2022-12-06T01:11:17.778Z,83.52
2022-12-06T01:13:44.701Z,84.12
2022-12-06T01:16:15.428Z,84.31
2022-12-06T01:18:43.904Z,83.65
2022-12-06T01:21:16.142Z,83.65
2022-12-06T01:23:44.812Z,83.26
2022-12-06T01:26:24.212Z,83.13
2022-12-06T01:28:51.254Z,83.40
2022-12-06T01:31:18.511Z,83.86
2022-12-06T01:33:45.987Z,83.63
2022-12-06T01:36:20.039Z,83.29
2022-12-06T01:38:52.505Z,83.35
2022-12-06T01:41:21.226Z,82.87
2022-12-06T01:43:48.373Z,83.55
2022-12-06T01:46:26.447Z,83.39
2022-12-06T01:49:00.325Z,83.84
2022-12-06T01:51:27.724Z,83.62
2022-12-06T01:53:55.236Z,84.10
2022-12-06T01:56:22.627Z,84.12
2022-12-06T01:58:54.641Z,83.49
2022-12-06T02:01:21.715Z,83.90
2022-12-06T02:03:48.848Z,83.84
2022-12-06T02:06:16.749Z,83.61
2022-12-06T02:08:44.330Z,83.58
2022-12-06T02:11:10.965Z,83.31
2022-12-06T02:13:38.779Z,83.14
2022-12-06T02:16:33.898Z,83.34
2022-12-06T02:19:19.351Z,83.54
2022-12-06T02:21:49.193Z,82.90
2022-12-06T02:24:37.546Z,82.85
2022-12-06T02:27:17.584Z,82.45
2022-12-06T02:30:08.696Z,82.33
2022-12-06T02:32:49.170Z,82.50
2022-12-06T02:35:32.487Z,81.96
2022-12-06T02:38:11.559Z,82.28
2022-12-06T02:40:58.481Z,82.25
2022-12-06T02:43:37.413Z,82.25
2022-12-06T02:46:05.876Z,82.20
2022-12-06T02:48:34.540Z,82.61
2022-12-06T02:51:06.220Z,82.68
2022-12-06T02:53:36.996Z,82.77
2022-12-06T02:56:04.051Z,82.73
2022-12-06T02:58:36.062Z,82.67
2022-12-06T03:01:23.318Z,82.38
2022-12-06T03:04:09.782Z,82.78
2022-12-06T03:07:00.420Z,82.97
2022-12-06T03:09:45.719Z,82.67
2022-12-06T03:12:43.861Z,82.91
2022-12-06T03:15:13.335Z,82.25
2022-12-06T03:18:12.042Z,82.47
2022-12-06T03:20:45.499Z,82.53
2022-12-06T03:23:18.584Z,82.89
2022-12-06T03:25:48.660Z,82.58
2022-12-06T03:28:18.208Z,83.09
2022-12-06T03:30:50.157Z,82.70
2022-12-06T03:33:20.904Z,82.30
2022-12-06T03:35:50.549Z,82.41
2022-12-06T03:38:24.070Z,82.44
2022-12-06T03:40:54.057Z,82.07
2022-12-06T03:43:24.779Z,82.24
2022-12-06T03:46:20.228Z,82.38
2022-12-06T03:48:52.902Z,81.88
2022-12-06T03:51:26.850Z,82.52
2022-12-06T03:53:56.442Z,82.09
2022-12-06T03:56:23.595Z,82.04
2022-12-06T03:58:50.307Z,81.61
2022-12-06T04:01:17.685Z,82.73
2022-12-06T04:03:44.570Z,82.56
2022-12-06T04:06:11.927Z,81.88
2022-12-06T04:08:39.568Z,82.74
2022-12-06T04:11:06.466Z,82.77
2022-12-06T04:13:33.385Z,82.58
2022-12-06T04:16:02.107Z,82.57
2022-12-06T04:18:29.434Z,82.34
2022-12-06T04:21:17.186Z,82.26
2022-12-06T04:23:47.383Z,81.82
2022-12-06T04:26:18.165Z,82.22
2022-12-06T04:29:03.911Z,82.64
2022-12-06T04:31:49.836Z,82.29
2022-12-06T04:34:35.257Z,82.34
2022-12-06T04:37:21.628Z,81.86
2022-12-06T04:39:48.546Z,81.93
2022-12-06T04:42:34.436Z,82.33
2022-12-06T04:45:01.817Z,82.19
2022-12-06T04:47:29.149Z,82.88
2022-12-06T04:49:56.161Z,82.85
2022-12-06T04:52:23.097Z,82.89
2022-12-06T04:54:49.891Z,83.03
2022-12-06T04:57:17.567Z,83.71
2022-12-06T04:59:46.183Z,83.14
2022-12-06T05:02:15.446Z,82.06
2022-12-06T05:04:42.190Z,82.13
2022-12-06T05:07:09.768Z,82.17
2022-12-06T05:09:36.513Z,82.56
2022-12-06T05:12:03.494Z,81.88
2022-12-06T05:14:30.362Z,82.60
2022-12-06T05:16:57.058Z,82.18
2022-12-06T05:19:23.804Z,81.75
2022-12-06T05:21:50.468Z,81.98
2022-12-06T05:24:17.099Z,81.24
2022-12-06T05:26:43.772Z,81.55
2022-12-06T05:29:10.478Z,81.66
2022-12-06T05:31:37.120Z,81.65
2022-12-06T05:34:03.887Z,81.69
2022-12-06T05:36:30.632Z,81.33
2022-12-06T05:38:57.661Z,81.64
2022-12-06T05:41:24.970Z,81.97
2022-12-06T05:43:52.275Z,82.11
2022-12-06T05:46:19.047Z,82.04
2022-12-06T05:48:45.940Z,82.21
2022-12-06T05:51:13.031Z,82.36
2022-12-06T05:53:40.804Z,82.31
2022-12-06T05:56:09.929Z,82.72
2022-12-06T05:58:37.221Z,82.19
2022-12-06T06:01:05.797Z,82.35
2022-12-06T06:03:32.823Z,82.06
2022-12-06T06:06:01.232Z,82.05
2022-12-06T06:08:29.154Z,82.64
2022-12-06T06:10:56.403Z,82.15
2022-12-06T06:13:23.564Z,82.67
2022-12-06T06:15:50.449Z,83.03
2022-12-06T06:18:18.550Z,83.14
2022-12-06T06:20:53.356Z,83.12
2022-12-06T06:23:21.225Z,82.50
2022-12-06T06:25:48.197Z,82.44
2022-12-06T06:28:15.193Z,82.86
2022-12-06T06:30:42.037Z,82.42
2022-12-06T06:33:08.719Z,82.57
2022-12-06T06:35:38.024Z,82.55
2022-12-06T06:38:08.127Z,82.71
2022-12-06T06:40:35.419Z,82.86
2022-12-06T06:43:20.800Z,83.26
2022-12-06T06:45:54.798Z,82.95
2022-12-06T06:48:23.066Z,82.77
2022-12-06T06:50:55.382Z,82.72
2022-12-06T06:53:24.988Z,82.49
2022-12-06T06:55:53.948Z,82.33
2022-12-06T06:58:20.658Z,82.36
2022-12-06T07:00:52.381Z,83.45
2022-12-06T07:03:20.350Z,82.89
2022-12-06T07:05:55.805Z,83.17
2022-12-06T07:08:23.268Z,83.76
2022-12-06T07:10:50.273Z,83.33
2022-12-06T07:13:18.129Z,83.67
2022-12-06T07:15:45.863Z,83.78
2022-12-06T07:18:12.822Z,83.56
2022-12-06T07:20:40.390Z,83.56
2022-12-06T07:23:07.230Z,83.89
2022-12-06T07:25:33.858Z,83.69
2022-12-06T07:28:00.458Z,83.45
2022-12-06T07:30:28.533Z,83.42
2022-12-06T07:32:55.505Z,83.59
2022-12-06T07:35:22.193Z,83.67
2022-12-06T07:37:48.985Z,83.32
2022-12-06T07:40:16.968Z,83.42
2022-12-06T07:43:02.858Z,83.45
2022-12-06T07:45:29.679Z,83.61
2022-12-06T07:47:56.331Z,84.10
2022-12-06T07:50:24.159Z,83.65
2022-12-06T07:52:52.015Z,83.33
2022-12-06T07:55:19.132Z,83.44
2022-12-06T07:57:45.713Z,83.72
2022-12-06T08:00:17.012Z,84.11
2022-12-06T08:02:44.828Z,83.09
2022-12-06T08:05:12.243Z,83.29
2022-12-06T08:07:39.725Z,83.40
2022-12-06T08:10:07.274Z,83.55
2022-12-06T08:12:33.986Z,83.64
2022-12-06T08:15:00.674Z,82.45
2022-12-06T08:17:29.172Z,82.58
2022-12-06T08:19:56.213Z,82.73
2022-12-06T08:22:22.870Z,82.30
2022-12-06T08:24:49.446Z,82.59
2022-12-06T08:27:16.261Z,82.35
2022-12-06T08:29:45.207Z,82.07
2022-12-06T08:32:12.238Z,82.69
2022-12-06T08:34:38.988Z,82.92
2022-12-06T08:37:05.622Z,82.79
2022-12-06T08:39:32.349Z,82.27
2022-12-06T08:42:03.647Z,81.79
2022-12-06T08:44:32.086Z,82.40
2022-12-06T08:47:01.574Z,81.51
2022-12-06T08:49:30.404Z,81.64
2022-12-06T08:51:58.393Z,81.55
2022-12-06T08:54:25.948Z,81.75
2022-12-06T08:56:53.477Z,81.31
2022-12-06T08:59:20.556Z,81.74
2022-12-06T09:01:48.437Z,81.65
2022-12-06T09:04:15.852Z,81.35
2022-12-06T09:06:44.158Z,81.48
2022-12-06T09:09:12.430Z,81.54
2022-12-06T09:11:40.621Z,81.53
2022-12-06T09:14:09.266Z,80.66
2022-12-06T09:16:36.254Z,80.76
2022-12-06T09:19:04.023Z,81.01
2022-12-06T09:21:31.842Z,81.17
2022-12-06T09:23:59.152Z,81.53
2022-12-06T09:26:27.521Z,81.17
2022-12-06T09:28:56.749Z,81.11
2022-12-06T09:31:24.597Z,81.07
2022-12-06T09:33:52.452Z,81.02
2022-12-06T09:36:25.362Z,80.81
2022-12-06T09:38:55.840Z,81.40
2022-12-06T09:41:35.814Z,80.62
2022-12-06T09:44:11.566Z,80.54
2022-12-06T09:47:10.933Z,81.23
2022-12-06T09:50:08.655Z,80.89
2022-12-06T09:52:46.895Z,80.89
2022-12-06T09:55:50.710Z,81.04
2022-12-06T09:58:48.144Z,80.24
2022-12-06T10:01:28.919Z,80.37
2022-12-06T10:04:20.286Z,80.41
2022-12-06T10:07:07.228Z,80.99
2022-12-06T10:09:39.087Z,81.03
2022-12-06T10:12:34.608Z,80.70
2022-12-06T10:15:20.158Z,81.37
2022-12-06T10:18:17.369Z,81.64
2022-12-06T10:20:57.784Z,81.12
2022-12-06T10:23:30.598Z,81.67
2022-12-06T10:26:19.306Z,81.77
2022-12-06T10:28:51.173Z,82.10
2022-12-06T10:31:27.330Z,81.85
2022-12-06T10:34:01.081Z,81.49
2022-12-06T10:36:58.557Z,81.42
2022-12-06T10:39:50.197Z,81.61
2022-12-06T10:42:36.993Z,81.20
2022-12-06T10:45:28.621Z,80.87
2022-12-06T10:47:59.385Z,80.08
2022-12-06T10:50:30.220Z,80.62
2022-12-06T10:53:05.682Z,81.43
2022-12-06T10:55:39.609Z,81.01
2022-12-06T10:58:24.730Z,80.98
2022-12-06T11:01:00.892Z,80.65
2022-12-06T11:03:39.268Z,80.83
2022-12-06T11:06:13.149Z,80.08
2022-12-06T11:08:44.228Z,80.20
2022-12-06T11:11:15.670Z,81.20
2022-12-06T11:13:51.142Z,80.37
2022-12-06T11:16:41.087Z,80.67
2022-12-06T11:19:33.378Z,80.86
2022-12-06T11:22:22.166Z,80.55
2022-12-06T11:25:14.706Z,80.45
2022-12-06T11:27:54.088Z,80.25
2022-12-06T11:30:21.965Z,80.34
2022-12-06T11:32:51.646Z,80.79
2022-12-06T11:35:23.294Z,80.42
2022-12-06T11:37:56.252Z,80.85
2022-12-06T11:40:30.274Z,81.43
2022-12-06T11:43:00.381Z,81.28
2022-12-06T11:45:34.924Z,81.07
2022-12-06T11:48:19.039Z,80.95
2022-12-06T11:50:48.107Z,81.13
2022-12-06T11:54:00.197Z,81.52
2022-12-06T11:56:32.728Z,81.07
2022-12-06T11:59:15.735Z,81.56
2022-12-06T12:01:45.498Z,81.70
2022-12-06T12:04:24.555Z,81.82
2022-12-06T12:06:57.149Z,81.63
2022-12-06T12:09:29.443Z,82.13
2022-12-06T12:12:07.248Z,81.34
2022-12-06T12:14:39.567Z,81.57
2022-12-06T12:17:28.752Z,82.24
2022-12-06T12:20:03.716Z,81.60
2022-12-06T12:22:36.731Z,81.77
2022-12-06T12:25:20.654Z,81.54
2022-12-06T12:27:53.941Z,81.77
2022-12-06T12:30:26.908Z,82.00
2022-12-06T12:33:05.851Z,81.34
2022-12-06T12:35:38.997Z,82.44
2022-12-06T12:38:11.652Z,82.23
2022-12-06T12:40:41.700Z,81.64
2022-12-06T12:43:11.325Z,82.32
2022-12-06T12:46:07.131Z,82.30
2022-12-06T12:48:34.900Z,82.73
2022-12-06T12:51:06.007Z,82.94
2022-12-06T12:53:45.707Z,83.31
2022-12-06T12:56:16.481Z,82.98
2022-12-06T12:59:03.012Z,83.52
2022-12-06T13:01:42.198Z,84.00
2022-12-06T13:04:17.660Z,84.38
2022-12-06T13:06:59.848Z,84.26
2022-12-06T13:09:39.499Z,83.99
2022-12-06T13:12:13.726Z,84.23
2022-12-06T13:14:50.376Z,84.35
2022-12-06T13:17:17.935Z,84.42
2022-12-06T13:19:53.022Z,84.85
2022-12-06T13:22:26.030Z,84.17
2022-12-06T13:25:05.403Z,84.22
2022-12-06T13:27:36.676Z,84.60
2022-12-06T13:30:13.933Z,84.42
2022-12-06T13:32:51.987Z,84.48
2022-12-06T13:35:21.574Z,84.09
2022-12-06T13:37:56.740Z,84.24
2022-12-06T13:40:35.325Z,84.59
2022-12-06T13:43:04.681Z,84.20
2022-12-06T13:45:37.201Z,83.75
2022-12-06T13:48:04.031Z,84.11
2022-12-06T13:50:33.414Z,84.46
2022-12-06T13:53:01.617Z,83.64
2022-12-06T13:55:31.204Z,84.04
2022-12-06T13:58:00.250Z,84.29
2022-12-06T14:00:29.872Z,84.52
2022-12-06T14:03:25.913Z,84.70
2022-12-06T14:08:32.578Z,84.81
2022-12-06T14:11:38.192Z,85.48
2022-12-06T14:14:18.222Z,85.10
2022-12-06T14:16:46.589Z,84.24
2022-12-06T14:19:17.666Z,84.19
2022-12-06T14:21:59.497Z,83.50
2022-12-06T14:24:33.331Z,84.28
2022-12-06T14:27:19.240Z,84.39
2022-12-06T14:30:04.602Z,84.49
2022-12-06T14:32:33.755Z,83.86
2022-12-06T14:35:06.719Z,84.52
2022-12-06T14:37:33.723Z,84.70
2022-12-06T14:40:11.600Z,83.17
2022-12-06T14:43:02.472Z,84.09
2022-12-06T14:45:33.062Z,83.89
2022-12-06T14:48:02.214Z,83.84
2022-12-06T14:50:33.365Z,83.80
2022-12-06T14:53:07.808Z,83.75
2022-12-06T14:55:37.499Z,84.44
2022-12-06T14:58:34.603Z,83.82
2022-12-06T15:01:15.034Z,83.34
2022-12-06T15:03:41.824Z,83.63
2022-12-06T15:06:23.453Z,83.57
2022-12-06T15:08:56.129Z,84.04
2022-12-06T15:11:44.707Z,83.90
2022-12-06T15:14:12.937Z,84.03
2022-12-06T15:16:40.476Z,83.29
2022-12-06T15:19:13.574Z,83.55
2022-12-06T15:21:40.329Z,83.84
2022-12-06T15:24:19.531Z,83.48
2022-12-06T15:26:46.864Z,83.41
2022-12-06T15:29:13.911Z,83.56
2022-12-06T15:31:43.378Z,83.79
2022-12-06T15:34:21.622Z,83.45
2022-12-06T15:36:48.597Z,83.54
2022-12-06T15:39:15.992Z,84.03
2022-12-06T15:41:43.106Z,83.44
2022-12-06T15:44:15.476Z,83.74
2022-12-06T15:46:43.148Z,84.29
2022-12-06T15:49:17.307Z,83.57
2022-12-06T15:51:44.713Z,83.21
2022-12-06T15:54:23.533Z,83.97
2022-12-06T15:56:51.478Z,83.93
2022-12-06T15:59:19.330Z,84.25
2022-12-06T16:01:48.545Z,84.35
2022-12-06T16:04:18.422Z,83.81
2022-12-06T16:06:45.944Z,84.09
2022-12-06T16:09:14.454Z,83.98
2022-12-06T16:11:41.369Z,83.68
2022-12-06T16:14:08.374Z,84.22
2022-12-06T16:16:39.922Z,83.87
2022-12-06T16:19:09.992Z,83.59
2022-12-06T16:21:51.963Z,83.81
2022-12-06T16:24:18.958Z,84.81
2022-12-06T16:26:46.588Z,83.95
2022-12-06T16:29:16.105Z,84.23
2022-12-06T16:31:43.704Z,84.29
2022-12-06T16:34:10.692Z,84.54
2022-12-06T16:36:53.936Z,85.00
2022-12-06T16:39:20.683Z,84.30
2022-12-06T16:41:47.348Z,83.95
2022-12-06T16:44:15.553Z,84.42
2022-12-06T16:46:42.710Z,83.42
2022-12-06T16:49:44.630Z,83.91
2022-12-06T16:52:07.309Z,83.73
2022-12-06T16:54:33.988Z,84.56
2022-12-06T16:57:00.624Z,83.47
2022-12-06T16:59:27.314Z,83.67
2022-12-06T17:01:55.232Z,83.92
2022-12-06T17:04:22.774Z,84.07
2022-12-06T17:06:49.778Z,84.14
2022-12-06T17:09:16.715Z,83.72
2022-12-06T17:12:02.509Z,83.89
2022-12-06T17:14:29.582Z,83.57
2022-12-06T17:16:57.334Z,83.53
2022-12-06T17:19:28.459Z,83.40
2022-12-06T17:21:56.998Z,83.51
2022-12-06T17:24:27.028Z,83.15
2022-12-06T17:26:55.160Z,83.48
2022-12-06T17:29:23.822Z,83.28
2022-12-06T17:31:52.540Z,83.38
2022-12-06T17:34:20.238Z,83.38
2022-12-06T17:36:49.287Z,83.57
2022-12-06T17:39:19.102Z,83.19
2022-12-06T17:42:04.934Z,83.04
2022-12-06T17:44:32.780Z,83.51
2022-12-06T17:46:59.881Z,83.63
2022-12-06T17:49:27.852Z,84.05
2022-12-06T17:51:55.731Z,84.14
2022-12-06T17:54:22.590Z,83.38
2022-12-06T17:56:52.086Z,83.44
2022-12-06T17:59:21.283Z,84.07
2022-12-06T18:04:36.020Z,83.54
2022-12-06T18:07:02.895Z,84.37
2022-12-06T18:09:30.558Z,83.99
2022-12-06T18:11:57.528Z,83.47
2022-12-06T18:14:24.183Z,83.22
2022-12-06T18:16:52.758Z,84.50
2022-12-06T18:19:21.153Z,83.33
2022-12-06T18:21:49.814Z,83.95
2022-12-06T18:24:22.106Z,83.97
2022-12-06T18:26:51.565Z,84.01
2022-12-06T18:29:22.888Z,84.05
2022-12-06T18:31:49.979Z,84.07
2022-12-06T18:34:17.287Z,84.07
2022-12-06T18:36:43.879Z,84.10
2022-12-06T18:39:15.593Z,84.02
2022-12-06T18:41:46.883Z,83.78
2022-12-06T18:44:14.113Z,84.70
2022-12-06T18:46:42.571Z,84.14
2022-12-06T18:49:11.796Z,84.45
2022-12-06T18:51:39.577Z,83.87
2022-12-06T18:54:08.254Z,84.48
2022-12-06T18:56:35.859Z,84.34
2022-12-06T18:59:05.591Z,84.30
2022-12-06T19:01:35.180Z,83.73
2022-12-06T19:04:03.868Z,83.81
2022-12-06T19:06:33.293Z,83.36
2022-12-06T19:09:03.064Z,84.14
2022-12-06T19:11:29.839Z,83.24
2022-12-06T19:13:58.957Z,84.34
2022-12-06T19:16:38.837Z,84.38
2022-12-06T19:19:14.430Z,84.36
2022-12-06T19:21:44.213Z,83.84
2022-12-06T19:24:13.432Z,84.44
2022-12-06T19:26:41.868Z,84.19
2022-12-06T19:29:08.921Z,84.19
2022-12-06T19:31:35.888Z,84.48
2022-12-06T19:34:03.600Z,84.00
2022-12-06T19:36:31.370Z,84.66
2022-12-06T19:39:01.725Z,84.13
2022-12-06T19:41:29.176Z,84.57
2022-12-06T19:44:14.985Z,84.35
2022-12-06T19:46:43.425Z,84.05
2022-12-06T19:49:13.879Z,84.18
2022-12-06T19:51:41.822Z,83.77
2022-12-06T19:54:10.273Z,84.15
2022-12-06T19:56:38.668Z,84.15
2022-12-06T19:59:13.531Z,84.64
2022-12-06T20:01:44.714Z,85.02
2022-12-06T20:04:16.774Z,84.41
2022-12-06T20:06:45.827Z,85.06
2022-12-06T20:09:12.869Z,84.08
2022-12-06T20:12:01.028Z,84.05
2022-12-06T20:14:49.122Z,83.95
2022-12-06T20:17:18.426Z,84.40
2022-12-06T20:19:52.131Z,84.59
2022-12-06T20:22:22.167Z,83.97
2022-12-06T20:24:48.943Z,84.54
2022-12-06T20:27:17.034Z,84.14
2022-12-06T20:29:43.652Z,83.95
2022-12-06T20:32:11.319Z,84.19
2022-12-06T20:34:38.000Z,83.62
2022-12-06T20:37:05.954Z,84.90
2022-12-06T20:39:35.309Z,84.94
2022-12-06T20:42:03.391Z,83.91
2022-12-06T20:44:30.444Z,83.64
2022-12-06T20:46:57.503Z,83.10
2022-12-06T20:49:24.541Z,84.22
2022-12-06T20:51:53.219Z,84.04
2022-12-06T20:54:21.385Z,84.21
2022-12-06T20:56:51.582Z,84.63
2022-12-06T20:59:18.998Z,83.80
2022-12-06T21:01:45.883Z,83.21
2022-12-06T21:04:14.283Z,83.95
2022-12-06T21:06:41.549Z,84.25
2022-12-06T21:09:08.309Z,83.86
2022-12-06T21:11:35.006Z,84.15
2022-12-06T21:14:01.527Z,84.53
2022-12-06T21:16:30.218Z,83.56
2022-12-06T21:19:00.635Z,84.31
2022-12-06T21:21:34.586Z,83.50
2022-12-06T21:24:03.176Z,83.61
2022-12-06T21:26:31.250Z,84.04
2022-12-06T21:28:58.351Z,83.35
2022-12-06T21:31:36.515Z,83.48
2022-12-06T21:34:04.259Z,83.59
2022-12-06T21:36:31.126Z,83.80
2022-12-06T21:38:58.875Z,83.41
2022-12-06T21:41:26.446Z,83.38
2022-12-06T21:43:53.307Z,83.83
2022-12-06T21:46:22.542Z,83.27
2022-12-06T21:48:54.098Z,83.59
2022-12-06T21:51:21.350Z,83.96
2022-12-06T21:53:48.958Z,84.50
2022-12-06T21:56:21.334Z,83.37
2022-12-06T21:58:48.895Z,84.03
2022-12-06T22:01:21.976Z,83.95
2022-12-06T22:03:50.130Z,84.16
2022-12-06T22:06:17.313Z,84.14
2022-12-06T22:08:45.759Z,83.53
2022-12-06T22:11:13.937Z,83.73
2022-12-06T22:13:40.930Z,84.33
2022-12-06T22:16:10.079Z,83.96
2022-12-06T22:18:44.438Z,83.54
2022-12-06T22:21:18.246Z,83.56
2022-12-06T22:23:45.239Z,83.77
2022-12-06T22:26:17.736Z,84.45
2022-12-06T22:28:44.681Z,83.21
2022-12-06T22:31:17.765Z,82.83
2022-12-06T22:33:44.815Z,83.50
2022-12-06T22:36:12.688Z,83.99
2022-12-06T22:38:39.439Z,83.27
2022-12-06T22:41:07.005Z,83.03
2022-12-06T22:43:33.942Z,83.22
2022-12-06T22:46:05.681Z,83.29
2022-12-06T22:48:32.645Z,83.37
2022-12-06T22:51:11.253Z,83.23
2022-12-06T22:53:42.342Z,83.75
2022-12-06T22:56:09.981Z,83.50
2022-12-06T22:58:37.172Z,83.45
2022-12-06T23:01:17.523Z,83.94
2022-12-06T23:03:49.394Z,83.90
2022-12-06T23:06:18.834Z,83.72
2022-12-06T23:08:46.142Z,83.69
2022-12-06T23:11:18.564Z,83.48
2022-12-06T23:13:45.683Z,84.09
2022-12-06T23:16:15.244Z,83.72
2022-12-06T23:18:42.807Z,83.27
2022-12-06T23:21:17.708Z,83.00
2022-12-06T23:23:46.952Z,83.19
2022-12-06T23:26:16.890Z,83.75
2022-12-06T23:28:44.518Z,83.41
2022-12-06T23:31:26.714Z,83.44
2022-12-06T23:34:02.634Z,83.23
2022-12-06T23:36:31.583Z,83.41
2022-12-06T23:38:58.572Z,83.40
2022-12-06T23:41:28.277Z,83.09
2022-12-06T23:43:56.107Z,83.34
2022-12-06T23:46:26.093Z,82.79
2022-12-06T23:48:53.677Z,83.02
2022-12-06T23:51:22.633Z,82.61
2022-12-06T23:53:51.779Z,83.18
2022-12-06T23:56:20.311Z,83.55
2022-12-06T23:58:48.628Z,81.94
